Alpha Afovos — SZSJ — position and weather

sailwx.info

Track history (hours):
 
Tides and Currents Weather Stations Pressure Air Temp Water Temp Dewpoint Dewpoint Depression Visibility Wind Speed Wind Dir Waves Ship Positions

Alpha Afovos

Last reported at 2015-Jul-09 03:10 UTC. Time now 2015-Aug-05 02:19 UTC.
Position N 30°38' E 032°20'.
Warning: this ship's position is 26 days out of date.

Length 223 m; draft 13.3 m.

Type: Cargo ship. MMSI: 239802000.

Date/timePositionNaut miles runAvg speedWind from/ knotsBaromVisibWave heightAir tempDewpointWater temp
2015-Jul-09 03:10N 30°38' E 032°20'28 9.2
2015-Jul-09 00:04N 31°06' E 032°19'14 8.4
2015-Jul-08 22:27N 31°19' E 032°22'7 8.3
2015-Jul-08 21:33N 31°27' E 032°25'5 1.5
2015-Jul-08 18:08N 31°29' E 032°19'0 0.5
2015-Jul-08 17:32N 31°29' E 032°19'0 0.3
2015-Jul-08 16:11N 31°28' E 032°19'0 0.1
2015-Jul-08 15:32N 31°28' E 032°19'0 0.1
2015-Jul-08 14:29N 31°28' E 032°20'0 0.0
2015-Jul-08 13:29N 31°28' E 032°19'0 0.0
2015-Jul-08 12:32N 31°28' E 032°20'0 0.0
2015-Jul-08 11:32N 31°28' E 032°20'0 0.0
2015-Jul-08 10:32N 31°28' E 032°20'0 0.0
2015-Jul-08 09:32N 31°28' E 032°20'0 0.0
2015-Jul-08 08:32N 31°28' E 032°20'0 0.0
2015-Jul-07 22:11N 31°28' E 032°20'0 0.0
2015-Jul-07 21:26N 31°28' E 032°20'0 0.0
2015-Jul-07 20:32N 31°28' E 032°20'0 0.0
2015-Jul-07 19:32N 31°28' E 032°20'0 0.0
2015-Jul-07 18:20N 31°28' E 032°20'171 4.9
2015-Jul-06 07:27N 32°52' E 029°23'  
2015-Jul-03 16:20N 35°51' E 015°19'911.9
2015-Jul-03 15:33N 35°53' E 015°08'19 9.0
2015-Jul-03 13:30N 35°54' E 014°45'0 0.0
2015-Jul-03 12:33N 35°54' E 014°45'0 0.0
2015-Jul-03 11:33N 35°54' E 014°45'0 0.0
2015-Jul-03 10:33N 35°54' E 014°45'0 0.0
2015-Jul-03 09:33N 35°54' E 014°45'0 0.0
2015-Jul-03 08:30N 35°54' E 014°45'0 0.0
2015-Jul-03 07:33N 35°54' E 014°45'2 2.3
2015-Jul-03 06:33N 35°54' E 014°42'1211.7
2015-Jul-03 05:33N 36°01' E 014°30'1211.7
2015-Jul-03 04:33N 36°08' E 014°19'1211.9
2015-Jul-03 03:33N 36°13' E 014°05'1211.7
2015-Jul-03 02:33N 36°18' E 013°52'1211.7
2015-Jul-03 01:33N 36°23' E 013°39'1111.5
2015-Jul-03 00:33N 36°29' E 013°26'1211.5
2015-Jul-02 23:33N 36°33' E 013°13'1211.8
2015-Jul-02 22:33N 36°38' E 013°00'1212.0
2015-Jul-02 21:33N 36°44' E 012°47'1212.3
2015-Jul-02 20:33N 36°50' E 012°33'1312.3
2015-Jul-02 19:28N 36°55' E 012°18'1111.8
2015-Jul-02 18:33N 37°00' E 012°06'1111.4
2015-Jul-02 17:33N 37°05' E 011°53'1211.6
2015-Jul-02 16:33N 37°10' E 011°40'1211.5
2015-Jul-02 15:32N 37°15' E 011°27'1111.6
2015-Jul-02 14:33N 37°20' E 011°14'1211.9
2015-Jul-02 13:33N 37°25' E 011°00'1312.5
2015-Jul-02 12:33N 37°28' E 010°45'1212.1
2015-Jul-02 11:33N 37°31' E 010°30'1212.2
2015-Jul-02 10:33N 37°34' E 010°15'1212.3
2015-Jul-02 09:33N 37°33' E 009°59'1212.0
2015-Jul-02 08:33N 37°30' E 009°45'2311.7
2015-Jul-02 06:33N 37°22' E 009°17'5011.4
2015-Jul-02 02:13N 37°18' E 008°15'811.5
2015-Jul-02 01:33N 37°18' E 008°05'9810.9
2015-Jul-01 16:31N 37°17' E 006°02'1010.1
2015-Jul-01 15:33N 37°17' E 005°50'1010.4
2015-Jul-01 14:33N 37°17' E 005°36'1110.9
2015-Jul-01 13:33N 37°17' E 005°23'1111.3
2015-Jul-01 12:33N 37°16' E 005°09'1211.5
2015-Jul-01 11:33N 37°16' E 004°54'1211.6
2015-Jul-01 10:31N 37°16' E 004°39'1111.4
2015-Jul-01 09:33N 37°15' E 004°25'1111.2
2015-Jul-01 08:33N 37°15' E 004°11'1111.1
2015-Jul-01 07:33N 37°14' E 003°57'1111.5
2015-Jul-01 06:33N 37°12' E 003°43'1211.6
2015-Jul-01 05:33N 37°10' E 003°29'1211.6
2015-Jul-01 04:33N 37°08' E 003°14'1211.7
2015-Jul-01 03:33N 37°06' E 003°00'1211.8
2015-Jul-01 02:33N 37°03' E 002°46'1211.7
2015-Jul-01 01:33N 37°01' E 002°31'1311.7
2015-Jul-01 00:26N 36°59' E 002°15'1011.5
2015-Jun-30 23:33N 36°57' E 002°03'1211.6
2015-Jun-30 22:33N 36°54' E 001°48'1211.5
2015-Jun-30 21:33N 36°52' E 001°34'1111.2
2015-Jun-30 20:33N 36°50' E 001°21'1111.3
2015-Jun-30 19:33N 36°47' E 001°07'1111.1
2015-Jun-30 18:33N 36°45' E 000°53'1211.4
2015-Jun-30 17:32N 36°43' E 000°39'1111.2
2015-Jun-30 16:34N 36°41' E 000°26'1111.4
2015-Jun-30 15:33N 36°39' E 000°12'1111.5
2015-Jun-30 14:34N 36°37' W 000°02'1211.5
2015-Jun-30 13:33N 36°34' W 000°17'1111.4
2015-Jun-30 12:33N 36°32' W 000°30'1111.4
2015-Jun-30 11:34N 36°30' W 000°44'1111.2
2015-Jun-30 10:33N 36°28' W 000°58'1111.1
2015-Jun-30 09:32N 36°25' W 001°12'1111.0
2015-Jun-30 08:33N 36°23' W 001°25'1110.9
2015-Jun-30 07:30N 36°22' W 001°39'1011.0
2015-Jun-30 06:33N 36°19' W 001°52'1110.9
2015-Jun-30 05:33N 36°17' W 002°05'1411.0
2015-Jun-30 04:18N 36°16' W 002°22'1111.2
2015-Jun-30 03:22N 36°15' W 002°35'2411.7
2015-Jun-30 01:19N 36°12' W 003°04'1011.6
2015-Jun-30 00:29N 36°11' W 003°16'19730.8
2015-Jun-29 18:07N 36°07' W 007°20'105103.3
2015-Jun-29 17:05N 35°60' W 005°10'713.0
2015-Jun-29 16:33N 35°59' W 005°19'1614.4
2015-Jun-29 15:25N 35°55' W 005°38'96106.1
2015-Jun-29 14:31N 36°10' W 007°36'6955.2
2015-Jun-29 13:16N 35°54' W 006°13'7835.6
2015-Jun-29 11:04N 36°13' W 007°47'2 3.1
2015-Jun-29 10:32N 36°14' W 007°49'4 3.2
2015-Jun-29 09:24N 36°15' W 007°53'20 4.0
2015-Jun-29 04:26N 36°20' W 008°16'1112.1
2015-Jun-29 03:33N 36°23' W 008°29'  
Track history (hours):
 
Tides and Currents Weather Stations Pressure Air Temp Water Temp Dewpoint Dewpoint Depression Visibility Wind Speed Wind Dir Waves Ship Positions

Alpha Afovos

Last reported at 2015-Jul-09 03:10 UTC. Time now 2015-Aug-05 02:19 UTC.
Position N 30°38' E 032°20'.
Warning: this ship's position is 26 days out of date.

Length 223 m; draft 13.3 m.

Type: Cargo ship. MMSI: 239802000.

Date/timePositionNaut miles runAvg speedWind from/ knotsBaromVisibWave heightAir tempDewpointWater temp
2015-Jul-09 03:10N 30°38' E 032°20'28 9.2
2015-Jul-09 00:04N 31°06' E 032°19'14 8.4
2015-Jul-08 22:27N 31°19' E 032°22'7 8.3
2015-Jul-08 21:33N 31°27' E 032°25'5 1.5
2015-Jul-08 18:08N 31°29' E 032°19'0 0.5
2015-Jul-08 17:32N 31°29' E 032°19'0 0.3
2015-Jul-08 16:11N 31°28' E 032°19'0 0.1
2015-Jul-08 15:32N 31°28' E 032°19'0 0.1
2015-Jul-08 14:29N 31°28' E 032°20'0 0.0
2015-Jul-08 13:29N 31°28' E 032°19'0 0.0
2015-Jul-08 12:32N 31°28' E 032°20'0 0.0
2015-Jul-08 11:32N 31°28' E 032°20'0 0.0
2015-Jul-08 10:32N 31°28' E 032°20'0 0.0
2015-Jul-08 09:32N 31°28' E 032°20'0 0.0
2015-Jul-08 08:32N 31°28' E 032°20'0 0.0
2015-Jul-07 22:11N 31°28' E 032°20'0 0.0
2015-Jul-07 21:26N 31°28' E 032°20'0 0.0
2015-Jul-07 20:32N 31°28' E 032°20'0 0.0
2015-Jul-07 19:32N 31°28' E 032°20'0 0.0
2015-Jul-07 18:20N 31°28' E 032°20'171 4.9
2015-Jul-06 07:27N 32°52' E 029°23'  
2015-Jul-03 16:20N 35°51' E 015°19'911.9
2015-Jul-03 15:33N 35°53' E 015°08'19 9.0
2015-Jul-03 13:30N 35°54' E 014°45'0 0.0
2015-Jul-03 12:33N 35°54' E 014°45'0 0.0
2015-Jul-03 11:33N 35°54' E 014°45'0 0.0
2015-Jul-03 10:33N 35°54' E 014°45'0 0.0
2015-Jul-03 09:33N 35°54' E 014°45'0 0.0
2015-Jul-03 08:30N 35°54' E 014°45'0 0.0
2015-Jul-03 07:33N 35°54' E 014°45'2 2.3
2015-Jul-03 06:33N 35°54' E 014°42'1211.7
2015-Jul-03 05:33N 36°01' E 014°30'1211.7
2015-Jul-03 04:33N 36°08' E 014°19'1211.9
2015-Jul-03 03:33N 36°13' E 014°05'1211.7
2015-Jul-03 02:33N 36°18' E 013°52'1211.7
2015-Jul-03 01:33N 36°23' E 013°39'1111.5
2015-Jul-03 00:33N 36°29' E 013°26'1211.5
2015-Jul-02 23:33N 36°33' E 013°13'1211.8
2015-Jul-02 22:33N 36°38' E 013°00'1212.0
2015-Jul-02 21:33N 36°44' E 012°47'1212.3
2015-Jul-02 20:33N 36°50' E 012°33'1312.3
2015-Jul-02 19:28N 36°55' E 012°18'1111.8
2015-Jul-02 18:33N 37°00' E 012°06'1111.4
2015-Jul-02 17:33N 37°05' E 011°53'1211.6
2015-Jul-02 16:33N 37°10' E 011°40'1211.5
2015-Jul-02 15:32N 37°15' E 011°27'1111.6
2015-Jul-02 14:33N 37°20' E 011°14'1211.9
2015-Jul-02 13:33N 37°25' E 011°00'1312.5
2015-Jul-02 12:33N 37°28' E 010°45'1212.1
2015-Jul-02 11:33N 37°31' E 010°30'1212.2
2015-Jul-02 10:33N 37°34' E 010°15'1212.3
2015-Jul-02 09:33N 37°33' E 009°59'1212.0
2015-Jul-02 08:33N 37°30' E 009°45'2311.7
2015-Jul-02 06:33N 37°22' E 009°17'5011.4
2015-Jul-02 02:13N 37°18' E 008°15'811.5
2015-Jul-02 01:33N 37°18' E 008°05'9810.9
2015-Jul-01 16:31N 37°17' E 006°02'1010.1
2015-Jul-01 15:33N 37°17' E 005°50'1010.4
2015-Jul-01 14:33N 37°17' E 005°36'1110.9
2015-Jul-01 13:33N 37°17' E 005°23'1111.3
2015-Jul-01 12:33N 37°16' E 005°09'1211.5
2015-Jul-01 11:33N 37°16' E 004°54'1211.6
2015-Jul-01 10:31N 37°16' E 004°39'1111.4
2015-Jul-01 09:33N 37°15' E 004°25'1111.2
2015-Jul-01 08:33N 37°15' E 004°11'1111.1
2015-Jul-01 07:33N 37°14' E 003°57'1111.5
2015-Jul-01 06:33N 37°12' E 003°43'1211.6
2015-Jul-01 05:33N 37°10' E 003°29'1211.6
2015-Jul-01 04:33N 37°08' E 003°14'1211.7
2015-Jul-01 03:33N 37°06' E 003°00'1211.8
2015-Jul-01 02:33N 37°03' E 002°46'1211.7
2015-Jul-01 01:33N 37°01' E 002°31'1311.7
2015-Jul-01 00:26N 36°59' E 002°15'1011.5
2015-Jun-30 23:33N 36°57' E 002°03'1211.6
2015-Jun-30 22:33N 36°54' E 001°48'1211.5
2015-Jun-30 21:33N 36°52' E 001°34'1111.2
2015-Jun-30 20:33N 36°50' E 001°21'1111.3
2015-Jun-30 19:33N 36°47' E 001°07'1111.1
2015-Jun-30 18:33N 36°45' E 000°53'1211.4
2015-Jun-30 17:32N 36°43' E 000°39'1111.2
2015-Jun-30 16:34N 36°41' E 000°26'1111.4
2015-Jun-30 15:33N 36°39' E 000°12'1111.5
2015-Jun-30 14:34N 36°37' W 000°02'1211.5
2015-Jun-30 13:33N 36°34' W 000°17'1111.4
2015-Jun-30 12:33N 36°32' W 000°30'1111.4
2015-Jun-30 11:34N 36°30' W 000°44'1111.2
2015-Jun-30 10:33N 36°28' W 000°58'1111.1
2015-Jun-30 09:32N 36°25' W 001°12'1111.0
2015-Jun-30 08:33N 36°23' W 001°25'1110.9
2015-Jun-30 07:30N 36°22' W 001°39'1011.0
2015-Jun-30 06:33N 36°19' W 001°52'1110.9
2015-Jun-30 05:33N 36°17' W 002°05'1411.0
2015-Jun-30 04:18N 36°16' W 002°22'1111.2
2015-Jun-30 03:22N 36°15' W 002°35'2411.7
2015-Jun-30 01:19N 36°12' W 003°04'1011.6
2015-Jun-30 00:29N 36°11' W 003°16'19730.8
2015-Jun-29 18:07N 36°07' W 007°20'105103.3
2015-Jun-29 17:05N 35°60' W 005°10'713.0
2015-Jun-29 16:33N 35°59' W 005°19'1614.4
2015-Jun-29 15:25N 35°55' W 005°38'96106.1
2015-Jun-29 14:31N 36°10' W 007°36'6955.2
2015-Jun-29 13:16N 35°54' W 006°13'7835.6
2015-Jun-29 11:04N 36°13' W 007°47'2 3.1
2015-Jun-29 10:32N 36°14' W 007°49'4 3.2
2015-Jun-29 09:24N 36°15' W 007°53'20 4.0
2015-Jun-29 04:26N 36°20' W 008°16'1112.1
2015-Jun-29 03:33N 36°23' W 008°29'  

Dump ship's entire track history